createdAt,value
2018-03-30T00:00:41.680Z,997.05
2018-03-30T00:01:41.624Z,997.01
2018-03-30T00:03:35.208Z,997.05
2018-03-30T00:04:35.013Z,997.06
2018-03-30T00:06:28.301Z,997.02
2018-03-30T00:07:28.276Z,997.04
2018-03-30T00:09:21.594Z,997.03
2018-03-30T00:10:21.537Z,997.06
2018-03-30T00:12:14.995Z,997.00
2018-03-30T00:13:14.799Z,997.02
2018-03-30T00:15:08.093Z,997.03
2018-03-30T00:16:08.085Z,996.98
2018-03-30T00:18:01.397Z,996.94
2018-03-30T00:19:01.322Z,996.95
2018-03-30T00:20:54.720Z,996.89
2018-03-30T00:21:54.664Z,996.89
2018-03-30T00:23:48.987Z,996.80
2018-03-30T00:24:48.919Z,996.80
2018-03-30T00:26:42.212Z,996.78
2018-03-30T00:27:42.172Z,996.78
2018-03-30T00:29:35.649Z,996.77
2018-03-30T00:30:35.488Z,996.74
2018-03-30T00:32:28.787Z,996.74
2018-03-30T00:33:28.791Z,996.72
2018-03-30T00:35:22.074Z,996.75
2018-03-30T00:36:22.015Z,996.75
2018-03-30T00:38:15.603Z,996.76
2018-03-30T00:39:15.379Z,996.73
2018-03-30T00:41:08.693Z,996.72
2018-03-30T00:42:08.667Z,996.70
2018-03-30T00:44:02.007Z,996.68
2018-03-30T00:45:01.931Z,996.74
2018-03-30T00:46:55.349Z,996.69
2018-03-30T00:47:55.224Z,996.65
2018-03-30T00:49:48.521Z,996.65
2018-03-30T00:50:48.484Z,996.66
2018-03-30T00:52:41.789Z,996.65
2018-03-30T00:53:41.747Z,996.63
2018-03-30T00:55:35.235Z,996.60
2018-03-30T00:56:35.069Z,996.62
2018-03-30T00:58:28.383Z,996.59
2018-03-30T00:59:28.335Z,996.56
2018-03-30T01:01:21.637Z,996.50
2018-03-30T01:02:21.588Z,996.48
2018-03-30T01:04:15.040Z,996.46
2018-03-30T01:05:14.862Z,996.49
2018-03-30T01:07:08.171Z,996.50
2018-03-30T01:08:08.170Z,996.50
2018-03-30T01:10:01.445Z,996.50
2018-03-30T01:11:01.412Z,996.44
2018-03-30T01:12:54.898Z,996.40
2018-03-30T01:13:54.699Z,996.41
2018-03-30T01:15:48.000Z,996.39
2018-03-30T01:16:47.952Z,996.34
2018-03-30T01:18:41.256Z,996.34
2018-03-30T01:19:41.218Z,996.31
2018-03-30T01:21:34.693Z,996.31
2018-03-30T01:22:34.501Z,996.31
2018-03-30T01:24:27.779Z,996.28
2018-03-30T01:25:27.743Z,996.29
2018-03-30T01:27:21.055Z,996.25
2018-03-30T01:28:21.006Z,996.24
2018-03-30T01:30:15.461Z,996.27
2018-03-30T01:31:15.325Z,996.29
2018-03-30T01:33:08.626Z,996.26
2018-03-30T01:34:08.586Z,996.23
2018-03-30T01:36:01.912Z,996.17
2018-03-30T01:37:01.858Z,996.18
2018-03-30T01:38:55.205Z,996.20
2018-03-30T01:39:55.148Z,996.21
2018-03-30T01:41:48.143Z,996.26
2018-03-30T01:42:48.089Z,996.21
2018-03-30T01:44:40.895Z,996.22
2018-03-30T01:45:40.880Z,996.22
2018-03-30T01:47:34.220Z,996.23
2018-03-30T01:48:34.122Z,996.24
2018-03-30T01:50:28.705Z,996.22
2018-03-30T01:51:28.544Z,996.27
2018-03-30T01:53:21.846Z,996.22
2018-03-30T01:54:29.439Z,996.17
2018-03-30T01:56:15.121Z,996.16
2018-03-30T01:57:15.064Z,996.12
2018-03-30T01:59:08.412Z,996.15
2018-03-30T02:00:08.376Z,996.08
2018-03-30T02:02:01.737Z,996.11
2018-03-30T02:03:01.765Z,996.10
2018-03-30T02:04:54.862Z,996.07
2018-03-30T02:05:54.796Z,996.05
2018-03-30T02:07:48.383Z,995.99
2018-03-30T02:08:48.162Z,995.98
2018-03-30T02:10:41.474Z,996.00
2018-03-30T02:11:41.434Z,995.99
2018-03-30T02:13:34.767Z,996.04
2018-03-30T02:14:34.725Z,995.98
2018-03-30T02:16:28.039Z,995.96
2018-03-30T02:17:27.999Z,995.95
2018-03-30T02:19:22.302Z,995.93
2018-03-30T02:20:22.261Z,995.90
2018-03-30T02:22:15.574Z,995.86
2018-03-30T02:23:15.526Z,995.86
2018-03-30T02:25:08.855Z,995.84
2018-03-30T02:26:08.818Z,995.84
2018-03-30T02:28:02.129Z,995.81
2018-03-30T02:29:02.151Z,995.78
2018-03-30T02:30:55.375Z,995.77
2018-03-30T02:31:55.333Z,995.82
2018-03-30T02:33:48.680Z,995.80
2018-03-30T02:34:48.629Z,995.80
2018-03-30T02:36:41.548Z,995.83
2018-03-30T02:37:41.390Z,995.83
2018-03-30T02:39:35.712Z,995.84
2018-03-30T02:40:35.668Z,995.85
2018-03-30T02:42:29.005Z,995.85
2018-03-30T02:43:28.926Z,995.85
2018-03-30T02:45:22.261Z,995.82
2018-03-30T02:46:22.201Z,995.84
2018-03-30T02:48:15.547Z,995.81
2018-03-30T02:49:15.477Z,995.79
2018-03-30T02:51:08.839Z,995.79
2018-03-30T02:52:08.748Z,995.75
2018-03-30T02:54:02.202Z,995.75
2018-03-30T02:55:02.001Z,995.73
2018-03-30T02:56:55.311Z,995.78
2018-03-30T02:57:55.261Z,995.74
2018-03-30T02:59:49.621Z,995.74
2018-03-30T03:00:49.548Z,995.73
2018-03-30T03:02:43.085Z,995.78
2018-03-30T03:03:43.029Z,995.78
2018-03-30T03:05:36.351Z,995.83
2018-03-30T03:06:36.285Z,995.83
2018-03-30T03:08:29.601Z,995.78
2018-03-30T03:09:29.670Z,995.78
2018-03-30T03:11:22.852Z,995.77
2018-03-30T03:12:22.810Z,995.79
2018-03-30T03:14:16.221Z,995.76
2018-03-30T03:15:16.183Z,995.71
2018-03-30T03:17:09.464Z,995.73
2018-03-30T03:18:09.476Z,995.71
2018-03-30T03:20:02.750Z,995.70
2018-03-30T03:21:02.692Z,995.68
2018-03-30T03:22:55.997Z,995.67
2018-03-30T03:23:55.959Z,995.64
2018-03-30T03:25:49.287Z,995.61
2018-03-30T03:26:49.292Z,995.59
2018-03-30T03:28:42.599Z,995.58
2018-03-30T03:29:42.501Z,995.54
2018-03-30T03:31:36.798Z,995.59
2018-03-30T03:32:36.752Z,995.60
2018-03-30T03:34:30.093Z,995.62
2018-03-30T03:35:30.032Z,995.64
2018-03-30T03:37:23.361Z,995.64
2018-03-30T03:38:23.292Z,995.60
2018-03-30T03:40:16.688Z,995.58
2018-03-30T03:41:16.641Z,995.59
2018-03-30T03:43:09.952Z,995.56
2018-03-30T03:44:09.891Z,995.55
2018-03-30T03:46:03.335Z,995.49
2018-03-30T03:47:03.170Z,995.50
2018-03-30T03:48:56.559Z,995.45
2018-03-30T03:49:56.487Z,995.44
2018-03-30T03:51:49.809Z,995.40
2018-03-30T03:52:49.752Z,995.43
2018-03-30T03:54:43.046Z,995.37
2018-03-30T03:55:43.006Z,995.40
2018-03-30T03:57:36.466Z,995.36
2018-03-30T03:58:36.346Z,995.35
2018-03-30T04:00:29.676Z,995.27
2018-03-30T04:01:29.601Z,995.28
2018-03-30T04:03:22.905Z,995.22
2018-03-30T04:04:22.853Z,995.21
2018-03-30T04:06:16.357Z,995.25
2018-03-30T04:07:16.148Z,995.24
2018-03-30T04:09:09.458Z,995.30
2018-03-30T04:10:09.418Z,995.31
2018-03-30T04:12:02.741Z,995.29
2018-03-30T04:13:02.679Z,995.30
2018-03-30T04:14:56.188Z,995.32
2018-03-30T04:15:56.011Z,995.29
2018-03-30T04:17:49.328Z,995.30
2018-03-30T04:18:49.289Z,995.29
2018-03-30T04:20:42.570Z,995.29
2018-03-30T04:21:42.546Z,995.29
2018-03-30T04:23:36.007Z,995.30
2018-03-30T04:24:35.799Z,995.29
2018-03-30T04:26:28.801Z,995.29
2018-03-30T04:27:28.728Z,995.26
2018-03-30T04:29:21.697Z,995.28
2018-03-30T04:30:21.655Z,995.33
2018-03-30T04:32:14.978Z,995.28
2018-03-30T04:33:14.926Z,995.31
2018-03-30T04:35:08.226Z,995.33
2018-03-30T04:36:08.182Z,995.36
2018-03-30T04:38:01.517Z,995.36
2018-03-30T04:39:01.464Z,995.34
2018-03-30T04:40:54.766Z,995.39
2018-03-30T04:41:54.718Z,995.44
2018-03-30T04:43:48.147Z,995.48
2018-03-30T04:44:48.073Z,995.54
2018-03-30T04:46:41.391Z,995.48
2018-03-30T04:47:41.349Z,995.50
2018-03-30T04:49:34.683Z,995.44
2018-03-30T04:50:34.613Z,995.43
2018-03-30T04:52:28.180Z,995.41
2018-03-30T04:53:28.003Z,995.42
2018-03-30T04:55:21.313Z,995.47
2018-03-30T04:56:21.289Z,995.41
2018-03-30T04:58:14.574Z,995.46
2018-03-30T04:59:14.532Z,995.41
2018-03-30T05:01:07.898Z,995.36
2018-03-30T05:02:07.814Z,995.35
2018-03-30T05:04:01.148Z,995.31
2018-03-30T05:05:01.079Z,995.30
2018-03-30T05:06:54.384Z,995.32
2018-03-30T05:07:54.396Z,995.32
2018-03-30T05:09:47.844Z,995.31
2018-03-30T05:10:47.624Z,995.26
2018-03-30T05:12:40.954Z,995.26
2018-03-30T05:13:40.906Z,995.25
2018-03-30T05:15:34.192Z,995.23
2018-03-30T05:16:34.194Z,995.21
2018-03-30T05:18:27.653Z,995.18
2018-03-30T05:19:27.439Z,995.19
2018-03-30T05:21:20.748Z,995.15
2018-03-30T05:22:20.705Z,995.15
2018-03-30T05:24:14.040Z,995.16
2018-03-30T05:25:14.015Z,995.17
2018-03-30T05:27:07.473Z,995.17
2018-03-30T05:28:07.284Z,995.16
2018-03-30T05:30:00.617Z,995.18
2018-03-30T05:31:00.563Z,995.18
2018-03-30T05:32:53.878Z,995.21
2018-03-30T05:33:53.847Z,995.22
2018-03-30T05:35:47.345Z,995.17
2018-03-30T05:36:47.155Z,995.15
2018-03-30T05:38:40.448Z,995.15
2018-03-30T05:39:40.412Z,995.15
2018-03-30T05:41:33.718Z,995.12
2018-03-30T05:42:33.678Z,995.09
2018-03-30T05:44:27.147Z,995.09
2018-03-30T05:45:26.937Z,995.08
2018-03-30T05:47:20.267Z,995.02
2018-03-30T05:48:20.215Z,995.00
2018-03-30T05:50:13.534Z,995.02
2018-03-30T05:51:13.479Z,995.05
2018-03-30T05:53:06.777Z,995.02
2018-03-30T05:54:06.741Z,995.01
2018-03-30T05:56:00.093Z,994.98
2018-03-30T05:56:59.999Z,994.98
2018-03-30T05:58:53.301Z,995.02
2018-03-30T05:59:53.265Z,995.01
2018-03-30T06:01:46.103Z,995.05
2018-03-30T06:02:46.041Z,995.06
2018-03-30T06:04:39.475Z,995.03
2018-03-30T06:05:39.301Z,995.06
2018-03-30T06:07:32.617Z,995.06
2018-03-30T06:08:32.588Z,995.04
2018-03-30T06:10:25.879Z,995.04
2018-03-30T06:11:25.838Z,995.04
2018-03-30T06:13:19.298Z,995.06
2018-03-30T06:14:19.093Z,995.04
2018-03-30T06:16:12.428Z,995.04
2018-03-30T06:17:12.382Z,995.05
2018-03-30T06:19:05.763Z,995.08
2018-03-30T06:20:05.638Z,995.04
2018-03-30T06:21:59.002Z,995.02
2018-03-30T06:22:58.924Z,995.02
2018-03-30T06:24:52.244Z,995.08
2018-03-30T06:25:52.203Z,995.07
2018-03-30T06:27:45.528Z,995.09
2018-03-30T06:28:45.484Z,995.09
2018-03-30T06:30:38.963Z,995.09
2018-03-30T06:31:38.772Z,995.11
2018-03-30T06:33:32.088Z,995.13
2018-03-30T06:34:32.049Z,995.10
2018-03-30T06:36:25.359Z,995.07
2018-03-30T06:37:25.309Z,995.03
2018-03-30T06:39:18.745Z,995.00
2018-03-30T06:40:18.579Z,994.95
2018-03-30T06:42:11.896Z,994.94
2018-03-30T06:43:11.840Z,994.94
2018-03-30T06:45:05.141Z,994.90
2018-03-30T06:46:05.112Z,994.87
2018-03-30T06:47:58.604Z,994.90
2018-03-30T06:48:58.400Z,994.84
2018-03-30T06:50:52.711Z,994.85
2018-03-30T06:51:52.670Z,994.88
2018-03-30T06:53:46.035Z,994.89
2018-03-30T06:54:45.972Z,994.86
2018-03-30T06:56:39.316Z,994.87
2018-03-30T06:57:39.281Z,994.87
2018-03-30T06:59:32.562Z,994.89
2018-03-30T07:00:32.492Z,994.92
2018-03-30T07:02:25.782Z,994.92
2018-03-30T07:03:25.756Z,994.90
2018-03-30T07:05:19.254Z,994.85
2018-03-30T07:06:19.081Z,994.88
2018-03-30T07:08:12.396Z,994.91
2018-03-30T07:09:12.384Z,994.94
2018-03-30T07:11:05.676Z,994.90
2018-03-30T07:12:05.606Z,994.91
2018-03-30T07:13:58.992Z,994.92
2018-03-30T07:14:58.854Z,994.91
2018-03-30T07:16:52.157Z,994.92
2018-03-30T07:17:52.171Z,994.87
2018-03-30T07:19:45.439Z,994.82
2018-03-30T07:20:45.382Z,994.81
2018-03-30T07:22:38.681Z,994.80
2018-03-30T07:23:38.657Z,994.83
2018-03-30T07:25:31.986Z,994.81
2018-03-30T07:26:31.920Z,994.85
2018-03-30T07:28:25.231Z,994.83
2018-03-30T07:29:25.200Z,994.80
2018-03-30T07:31:18.782Z,994.78
2018-03-30T07:32:18.501Z,994.75
2018-03-30T07:34:11.819Z,994.75
2018-03-30T07:35:11.772Z,994.71
2018-03-30T07:37:05.103Z,994.72
2018-03-30T07:38:05.048Z,994.72
2018-03-30T07:39:58.361Z,994.64
2018-03-30T07:40:58.314Z,994.64
2018-03-30T07:42:51.611Z,994.59
2018-03-30T07:43:51.595Z,994.57
2018-03-30T07:45:44.897Z,994.52
2018-03-30T07:46:44.845Z,994.58
2018-03-30T07:48:38.467Z,994.48
2018-03-30T07:49:38.178Z,994.50
2018-03-30T07:51:31.191Z,994.45
2018-03-30T07:52:31.136Z,994.40
2018-03-30T07:54:25.456Z,994.37
2018-03-30T07:55:25.425Z,994.33
2018-03-30T07:57:18.741Z,994.31
2018-03-30T07:58:18.703Z,994.31
2018-03-30T08:00:12.023Z,994.29
2018-03-30T08:01:11.971Z,994.29
2018-03-30T08:03:05.355Z,994.30
2018-03-30T08:04:05.267Z,994.31
2018-03-30T08:05:58.566Z,994.30
2018-03-30T08:06:58.528Z,994.29
2018-03-30T08:08:51.820Z,994.25
2018-03-30T08:09:51.772Z,994.22
2018-03-30T08:11:45.254Z,994.17
2018-03-30T08:12:45.086Z,994.13
2018-03-30T08:14:38.381Z,994.10
2018-03-30T08:15:38.366Z,994.10
2018-03-30T08:17:31.677Z,994.07
2018-03-30T08:18:31.623Z,994.07
2018-03-30T08:20:24.620Z,994.06
2018-03-30T08:21:24.558Z,994.07
2018-03-30T08:23:17.792Z,994.07
2018-03-30T08:24:17.692Z,994.08
2018-03-30T08:26:10.553Z,994.06
2018-03-30T08:27:10.476Z,994.02
2018-03-30T08:29:03.315Z,994.00
2018-03-30T08:30:03.244Z,994.01
2018-03-30T08:31:56.631Z,993.94
2018-03-30T08:32:56.429Z,993.91
2018-03-30T08:34:49.390Z,993.86
2018-03-30T08:35:49.351Z,993.87
2018-03-30T08:37:42.830Z,993.81
2018-03-30T08:38:42.643Z,993.84
2018-03-30T08:40:35.638Z,993.83
2018-03-30T08:41:35.602Z,993.84
2018-03-30T08:43:29.127Z,993.82
2018-03-30T08:44:28.880Z,993.81
2018-03-30T08:46:21.689Z,993.79
2018-03-30T08:47:21.644Z,993.77
2018-03-30T08:49:15.223Z,993.71
2018-03-30T08:50:15.039Z,993.74
2018-03-30T08:52:08.013Z,993.72
2018-03-30T08:53:07.972Z,993.70
2018-03-30T08:55:01.472Z,993.64
2018-03-30T08:56:01.278Z,993.71
2018-03-30T08:57:54.341Z,993.66
2018-03-30T08:58:54.277Z,993.64
2018-03-30T09:00:47.768Z,993.65
2018-03-30T09:01:47.576Z,993.64
2018-03-30T09:03:40.920Z,993.63
2018-03-30T09:04:40.857Z,993.61
2018-03-30T09:06:34.181Z,993.64
2018-03-30T09:07:34.759Z,993.61
2018-03-30T09:09:27.603Z,993.62
2018-03-30T09:10:27.404Z,993.60
2018-03-30T09:12:20.729Z,993.63
2018-03-30T09:13:20.697Z,993.62
2018-03-30T09:15:13.619Z,993.57
2018-03-30T09:16:13.571Z,993.59
2018-03-30T09:18:06.884Z,993.47
2018-03-30T09:19:06.844Z,993.45
2018-03-30T09:21:01.167Z,993.45
2018-03-30T09:22:01.121Z,993.46
2018-03-30T09:23:54.514Z,993.42
2018-03-30T09:24:54.469Z,993.44
2018-03-30T09:26:47.794Z,993.44
2018-03-30T09:27:47.743Z,993.45
2018-03-30T09:29:41.069Z,993.40
2018-03-30T09:30:41.029Z,993.43
2018-03-30T09:32:34.519Z,993.40
2018-03-30T09:33:34.308Z,993.40
2018-03-30T09:35:27.163Z,993.39
2018-03-30T09:36:27.098Z,993.33
2018-03-30T09:38:20.452Z,993.32
2018-03-30T09:39:20.428Z,993.34
2018-03-30T09:41:13.756Z,993.27
2018-03-30T09:42:13.693Z,993.29
2018-03-30T09:44:07.047Z,993.30
2018-03-30T09:45:06.972Z,993.32
2018-03-30T09:47:00.489Z,993.37
2018-03-30T09:48:00.287Z,993.30
2018-03-30T09:49:53.599Z,993.27
2018-03-30T09:50:53.557Z,993.26
2018-03-30T09:52:46.899Z,993.35
2018-03-30T09:53:46.838Z,993.46
2018-03-30T09:55:39.680Z,993.62
2018-03-30T09:56:39.637Z,993.72
2018-03-30T09:58:32.984Z,993.67
2018-03-30T09:59:32.939Z,993.78
2018-03-30T10:01:26.425Z,993.76
2018-03-30T10:02:26.330Z,993.83
2018-03-30T10:04:19.660Z,993.80
2018-03-30T10:05:19.633Z,993.88
2018-03-30T10:07:12.991Z,993.84
2018-03-30T10:08:12.919Z,993.93
2018-03-30T10:10:06.428Z,993.97
2018-03-30T10:11:06.224Z,994.12
2018-03-30T10:12:59.603Z,994.11
2018-03-30T10:13:59.549Z,994.08
2018-03-30T10:15:52.868Z,994.03
2018-03-30T10:16:52.877Z,993.83
2018-03-30T10:18:46.235Z,994.01
2018-03-30T10:19:46.155Z,994.15
2018-03-30T10:21:40.812Z,994.17
2018-03-30T10:22:40.576Z,994.10
2018-03-30T10:24:34.923Z,994.15
2018-03-30T10:25:34.903Z,994.19
2018-03-30T10:27:29.255Z,994.27
2018-03-30T10:28:29.198Z,994.32
2018-03-30T10:30:22.571Z,994.29
2018-03-30T10:31:22.506Z,994.32
2018-03-30T10:33:15.872Z,994.41
2018-03-30T10:34:15.808Z,994.51
2018-03-30T10:36:09.165Z,994.42
2018-03-30T10:37:09.184Z,994.39
2018-03-30T10:39:02.500Z,994.30
2018-03-30T10:40:02.439Z,994.18
2018-03-30T10:41:55.824Z,993.75
2018-03-30T10:42:55.794Z,993.75
2018-03-30T10:44:49.175Z,993.45
2018-03-30T10:45:49.108Z,993.34
2018-03-30T10:47:42.476Z,992.96
2018-03-30T10:48:42.434Z,993.02
2018-03-30T10:50:35.811Z,993.06
2018-03-30T10:51:35.738Z,993.04
2018-03-30T10:53:29.116Z,992.96
2018-03-30T10:54:29.050Z,992.94
2018-03-30T10:56:22.389Z,992.55
2018-03-30T10:57:22.426Z,992.66
2018-03-30T10:59:15.779Z,992.02
2018-03-30T11:00:15.719Z,992.12
2018-03-30T11:02:09.103Z,992.14
2018-03-30T11:03:10.020Z,992.19
2018-03-30T11:05:02.438Z,992.24
2018-03-30T11:06:02.414Z,992.01
2018-03-30T11:07:55.697Z,992.24
2018-03-30T11:08:55.675Z,992.19
2018-03-30T11:10:49.098Z,992.19
2018-03-30T11:11:49.043Z,991.99
2018-03-30T11:13:42.404Z,991.93
2018-03-30T11:14:42.331Z,991.55
2018-03-30T11:16:35.679Z,991.91
2018-03-30T11:17:35.663Z,991.88
2018-03-30T11:19:29.001Z,991.58
2018-03-30T11:20:28.985Z,991.47
2018-03-30T11:22:22.354Z,991.38
2018-03-30T11:23:22.336Z,991.62
2018-03-30T11:25:15.716Z,991.53
2018-03-30T11:26:15.639Z,991.67
2018-03-30T11:28:08.995Z,991.36
2018-03-30T11:29:08.994Z,991.80
2018-03-30T11:31:02.415Z,991.58
2018-03-30T11:32:02.299Z,991.66
2018-03-30T11:33:55.621Z,991.87
2018-03-30T11:34:55.646Z,991.74
2018-03-30T11:36:48.952Z,991.63
2018-03-30T11:37:48.925Z,991.73
2018-03-30T11:39:42.255Z,991.87
2018-03-30T11:40:42.209Z,991.55
2018-03-30T11:42:35.221Z,991.43
2018-03-30T11:43:35.177Z,991.45
2018-03-30T11:45:28.535Z,991.76
2018-03-30T11:46:28.504Z,991.53
2018-03-30T11:48:21.875Z,991.55
2018-03-30T11:49:21.850Z,990.90
2018-03-30T11:51:15.201Z,991.11
2018-03-30T11:52:15.152Z,991.16
2018-03-30T11:54:08.506Z,991.30
2018-03-30T11:55:08.471Z,991.18
2018-03-30T11:57:01.490Z,991.36
2018-03-30T11:58:01.425Z,991.23
2018-03-30T11:59:54.544Z,991.14
2018-03-30T12:00:54.519Z,991.11
2018-03-30T12:02:47.900Z,991.20
2018-03-30T12:03:47.879Z,991.17
2018-03-30T12:05:41.193Z,991.10
2018-03-30T12:06:41.175Z,991.14
2018-03-30T12:08:34.488Z,991.14
2018-03-30T12:09:34.440Z,991.20
2018-03-30T12:11:27.871Z,991.32
2018-03-30T12:12:27.769Z,991.33
2018-03-30T12:14:21.093Z,991.32
2018-03-30T12:15:21.080Z,991.35
2018-03-30T12:17:13.986Z,991.30
2018-03-30T12:18:13.916Z,991.21
2018-03-30T12:20:07.212Z,991.13
2018-03-30T12:21:07.176Z,991.12
2018-03-30T12:23:00.532Z,991.16
2018-03-30T12:24:00.464Z,991.26
2018-03-30T12:25:54.029Z,991.23
2018-03-30T12:26:53.873Z,991.21
2018-03-30T12:28:47.187Z,991.03
2018-03-30T12:29:47.134Z,991.08
2018-03-30T12:31:40.462Z,991.28
2018-03-30T12:32:40.451Z,991.24
2018-03-30T12:34:33.845Z,991.37
2018-03-30T12:35:33.736Z,991.38
2018-03-30T12:37:27.062Z,991.32
2018-03-30T12:38:27.028Z,991.27
2018-03-30T12:40:20.372Z,991.23
2018-03-30T12:41:20.428Z,991.22
2018-03-30T12:43:13.631Z,991.25
2018-03-30T12:44:13.460Z,991.23
2018-03-30T12:46:06.332Z,991.20
2018-03-30T12:47:06.262Z,991.15
2018-03-30T12:48:59.262Z,991.18
2018-03-30T12:49:59.322Z,991.15
2018-03-30T12:51:53.562Z,991.12
2018-03-30T12:52:53.499Z,991.04
2018-03-30T12:54:46.879Z,990.91
2018-03-30T12:55:46.865Z,990.94
2018-03-30T12:57:40.211Z,990.79
2018-03-30T12:58:40.175Z,990.74
2018-03-30T13:00:33.480Z,990.77
2018-03-30T13:01:33.452Z,990.79
2018-03-30T13:03:26.327Z,990.73
2018-03-30T13:04:26.252Z,990.65
2018-03-30T13:06:19.566Z,990.75
2018-03-30T13:07:19.527Z,990.74
2018-03-30T13:09:12.989Z,990.76
2018-03-30T13:10:12.916Z,990.66
2018-03-30T13:12:06.258Z,990.61
2018-03-30T13:13:06.218Z,990.62
2018-03-30T13:14:59.581Z,990.63
2018-03-30T13:15:59.518Z,990.54
2018-03-30T13:17:52.850Z,990.57
2018-03-30T13:18:52.825Z,990.53
2018-03-30T13:20:46.175Z,990.55
2018-03-30T13:21:46.113Z,990.55
2018-03-30T13:23:40.427Z,990.49
2018-03-30T13:24:40.391Z,990.48
2018-03-30T13:26:33.452Z,990.47
2018-03-30T13:27:33.391Z,990.44
2018-03-30T13:29:26.725Z,990.33
2018-03-30T13:30:26.670Z,990.34
2018-03-30T13:32:20.073Z,990.34
2018-03-30T13:33:20.027Z,990.37
2018-03-30T13:35:12.835Z,990.23
2018-03-30T13:36:12.805Z,990.21
2018-03-30T13:38:06.224Z,990.15
2018-03-30T13:39:06.176Z,990.12
2018-03-30T13:40:59.503Z,990.12
2018-03-30T13:41:59.454Z,990.13
2018-03-30T13:43:52.769Z,990.10
2018-03-30T13:44:52.768Z,990.10
2018-03-30T13:46:46.143Z,990.11
2018-03-30T13:47:46.022Z,990.08
2018-03-30T13:49:42.627Z,989.95
2018-03-30T13:50:40.469Z,990.03
2018-03-30T13:52:33.307Z,990.00
2018-03-30T13:53:33.256Z,990.03
2018-03-30T13:55:26.654Z,989.97
2018-03-30T13:56:26.606Z,989.92
2018-03-30T13:58:20.934Z,989.89
2018-03-30T13:59:20.908Z,989.92
2018-03-30T14:01:14.283Z,989.90
2018-03-30T14:02:14.201Z,989.96
2018-03-30T14:04:07.699Z,990.01
2018-03-30T14:05:07.527Z,989.90
2018-03-30T14:07:00.537Z,989.78
2018-03-30T14:08:00.492Z,989.73
2018-03-30T14:09:53.934Z,989.62
2018-03-30T14:10:53.794Z,989.70
2018-03-30T14:12:47.142Z,989.66
2018-03-30T14:13:47.098Z,989.56
2018-03-30T14:15:40.018Z,989.49
2018-03-30T14:16:39.915Z,989.52
2018-03-30T14:18:33.280Z,989.53
2018-03-30T14:19:33.207Z,989.59
2018-03-30T14:21:26.038Z,989.60
2018-03-30T14:22:25.991Z,989.57
2018-03-30T14:24:19.003Z,989.55
2018-03-30T14:25:18.855Z,989.61
2018-03-30T14:27:13.165Z,989.57
2018-03-30T14:28:13.123Z,989.58
2018-03-30T14:30:06.443Z,989.52
2018-03-30T14:31:06.431Z,989.51
2018-03-30T14:33:00.980Z,989.38
2018-03-30T14:34:00.928Z,989.42
2018-03-30T14:35:54.462Z,989.41
2018-03-30T14:36:54.305Z,989.44
2018-03-30T14:38:47.150Z,989.39
2018-03-30T14:39:47.083Z,989.37
2018-03-30T14:41:40.916Z,989.31
2018-03-30T14:42:40.883Z,989.32
2018-03-30T14:44:33.897Z,989.34
2018-03-30T14:45:33.827Z,989.35
2018-03-30T14:47:27.140Z,989.25
2018-03-30T14:48:27.139Z,989.27
2018-03-30T14:50:20.487Z,989.28
2018-03-30T14:51:20.432Z,989.20
2018-03-30T14:53:13.798Z,989.24
2018-03-30T14:54:13.735Z,989.23
2018-03-30T14:56:06.620Z,989.22
2018-03-30T14:57:06.551Z,989.24
2018-03-30T14:58:59.887Z,989.20
2018-03-30T14:59:59.817Z,989.21
2018-03-30T15:01:53.220Z,989.20
2018-03-30T15:02:53.174Z,989.19
2018-03-30T15:04:46.554Z,989.17
2018-03-30T15:05:46.469Z,989.19
2018-03-30T15:07:39.449Z,989.14
2018-03-30T15:08:39.426Z,989.09
2018-03-30T15:10:32.797Z,989.07
2018-03-30T15:11:32.715Z,989.02
2018-03-30T15:13:28.271Z,989.05
2018-03-30T15:14:28.125Z,989.02
2018-03-30T15:16:22.424Z,988.97
2018-03-30T15:17:22.376Z,989.00
2018-03-30T15:19:15.685Z,988.95
2018-03-30T15:20:15.659Z,989.00
2018-03-30T15:22:08.476Z,989.01
2018-03-30T15:23:08.493Z,989.02
2018-03-30T15:25:01.785Z,989.09
2018-03-30T15:26:01.735Z,989.07
2018-03-30T15:27:55.065Z,989.01
2018-03-30T15:28:55.038Z,988.98
2018-03-30T15:30:49.384Z,988.94
2018-03-30T15:31:49.398Z,988.91
2018-03-30T15:33:42.520Z,988.87
2018-03-30T15:34:42.455Z,988.87
2018-03-30T15:36:35.959Z,988.88
2018-03-30T15:37:35.972Z,988.90
2018-03-30T15:39:29.248Z,988.89
2018-03-30T15:40:29.223Z,988.83
2018-03-30T15:42:22.440Z,988.80
2018-03-30T15:43:22.359Z,988.83
2018-03-30T15:45:15.256Z,988.73
2018-03-30T15:46:15.157Z,988.75
2018-03-30T15:48:09.151Z,988.77
2018-03-30T15:49:09.106Z,988.75
2018-03-30T15:51:02.330Z,988.76
2018-03-30T15:52:02.280Z,988.76
2018-03-30T15:53:55.105Z,988.77
2018-03-30T15:54:55.052Z,988.81
2018-03-30T15:56:48.050Z,988.80
2018-03-30T15:57:48.018Z,988.79
2018-03-30T15:59:41.069Z,988.84
2018-03-30T16:00:40.987Z,988.83
2018-03-30T16:02:35.920Z,988.87
2018-03-30T16:03:34.258Z,988.83
2018-03-30T16:05:27.544Z,988.81
2018-03-30T16:06:27.515Z,988.81
2018-03-30T16:08:20.401Z,988.81
2018-03-30T16:09:20.360Z,988.81
2018-03-30T16:11:13.660Z,988.84
2018-03-30T16:12:13.583Z,988.82
2018-03-30T16:14:06.599Z,988.78
2018-03-30T16:15:06.551Z,988.80
2018-03-30T16:16:59.910Z,988.86
2018-03-30T16:17:59.825Z,988.85
2018-03-30T16:19:53.336Z,988.91
2018-03-30T16:20:53.212Z,988.87
2018-03-30T16:22:46.054Z,988.90
2018-03-30T16:23:45.994Z,988.92
2018-03-30T16:25:38.806Z,988.94
2018-03-30T16:26:38.771Z,988.94
2018-03-30T16:28:31.786Z,988.94
2018-03-30T16:29:31.779Z,988.90
2018-03-30T16:31:24.896Z,988.91
2018-03-30T16:32:24.845Z,988.97
2018-03-30T16:34:17.877Z,988.93
2018-03-30T16:35:17.851Z,988.91
2018-03-30T16:37:11.156Z,988.89
2018-03-30T16:38:11.099Z,988.88
2018-03-30T16:40:04.556Z,988.86
2018-03-30T16:41:04.432Z,988.87
2018-03-30T16:42:57.795Z,988.84
2018-03-30T16:43:57.734Z,988.84
2018-03-30T16:45:50.556Z,988.82
2018-03-30T16:46:50.506Z,988.82
2018-03-30T16:48:43.609Z,988.78
2018-03-30T16:49:43.532Z,988.81
2018-03-30T16:51:36.382Z,988.78
2018-03-30T16:52:36.330Z,988.75
2018-03-30T16:54:30.347Z,988.75
2018-03-30T16:55:30.280Z,988.73
2018-03-30T16:57:23.614Z,988.75
2018-03-30T16:58:23.543Z,988.68
2018-03-30T17:00:16.594Z,988.70
2018-03-30T17:01:16.536Z,988.72
2018-03-30T17:03:09.907Z,988.72
2018-03-30T17:04:09.361Z,988.69
2018-03-30T17:06:02.258Z,988.72
2018-03-30T17:07:02.140Z,988.71
2018-03-30T17:08:55.128Z,988.71
2018-03-30T17:09:55.100Z,988.70
2018-03-30T17:11:47.951Z,988.72
2018-03-30T17:12:47.907Z,988.73
2018-03-30T17:14:42.469Z,988.72
2018-03-30T17:15:41.158Z,988.75
2018-03-30T17:17:34.627Z,988.74
2018-03-30T17:18:33.943Z,988.77
2018-03-30T17:20:28.876Z,988.73
2018-03-30T17:21:26.879Z,988.76
2018-03-30T17:23:19.833Z,988.78
2018-03-30T17:24:19.686Z,988.75
2018-03-30T17:26:12.539Z,988.72
2018-03-30T17:27:12.499Z,988.72
2018-03-30T17:29:05.795Z,988.73
2018-03-30T17:30:05.743Z,988.67
2018-03-30T17:31:58.762Z,988.66
2018-03-30T17:32:58.561Z,988.63
2018-03-30T17:34:51.877Z,988.65
2018-03-30T17:35:51.810Z,988.63
2018-03-30T17:37:45.163Z,988.64
2018-03-30T17:38:45.084Z,988.64
2018-03-30T17:40:38.438Z,988.64
2018-03-30T17:41:38.377Z,988.61
2018-03-30T17:43:31.374Z,988.60
2018-03-30T17:44:31.314Z,988.62
2018-03-30T17:46:24.160Z,988.66
2018-03-30T17:47:24.120Z,988.65
2018-03-30T17:49:17.441Z,988.73
2018-03-30T17:50:17.389Z,988.78
2018-03-30T17:52:11.425Z,988.74
2018-03-30T17:53:11.325Z,988.78
2018-03-30T17:55:04.727Z,988.77
2018-03-30T17:56:04.683Z,988.80
2018-03-30T17:57:57.709Z,988.82
2018-03-30T17:58:57.650Z,988.86
2018-03-30T18:00:51.984Z,988.87